sensor_id;sensor_type;location;lat;lon;timestamp;P1;durP1;ratioP1;P2;durP2;ratioP2
10216;SDS011;5152;59.674;16.838;2023-03-08T00:02:15;4.30;;;1.90;;
10216;SDS011;5152;59.674;16.838;2023-03-08T00:04:42;3.97;;;3.13;;
10216;SDS011;5152;59.674;16.838;2023-03-08T00:07:09;16.67;;;3.37;;
10216;SDS011;5152;59.674;16.838;2023-03-08T00:09:37;2.80;;;2.13;;
10216;SDS011;5152;59.674;16.838;2023-03-08T00:12:04;2.27;;;1.90;;
10216;SDS011;5152;59.674;16.838;2023-03-08T00:14:34;3.17;;;2.13;;
10216;SDS011;5152;59.674;16.838;2023-03-08T00:17:01;1.93;;;1.50;;
10216;SDS011;5152;59.674;16.838;2023-03-08T00:19:28;2.33;;;1.90;;
10216;SDS011;5152;59.674;16.838;2023-03-08T00:21:55;3.93;;;2.00;;
10216;SDS011;5152;59.674;16.838;2023-03-08T00:24:22;3.03;;;1.63;;
10216;SDS011;5152;59.674;16.838;2023-03-08T00:26:51;4.30;;;1.80;;
10216;SDS011;5152;59.674;16.838;2023-03-08T00:29:17;2.17;;;1.80;;
10216;SDS011;5152;59.674;16.838;2023-03-08T00:31:44;2.43;;;2.10;;
10216;SDS011;5152;59.674;16.838;2023-03-08T00:34:11;2.73;;;2.00;;
10216;SDS011;5152;59.674;16.838;2023-03-08T00:36:38;2.50;;;1.80;;
10216;SDS011;5152;59.674;16.838;2023-03-08T00:39:05;3.97;;;2.40;;
10216;SDS011;5152;59.674;16.838;2023-03-08T00:41:32;9.37;;;2.73;;
10216;SDS011;5152;59.674;16.838;2023-03-08T00:44:00;4.17;;;2.87;;
10216;SDS011;5152;59.674;16.838;2023-03-08T00:46:27;5.60;;;3.30;;
10216;SDS011;5152;59.674;16.838;2023-03-08T00:48:54;3.83;;;2.60;;
10216;SDS011;5152;59.674;16.838;2023-03-08T00:51:21;5.30;;;2.77;;
10216;SDS011;5152;59.674;16.838;2023-03-08T00:53:48;3.83;;;2.70;;
10216;SDS011;5152;59.674;16.838;2023-03-08T00:56:15;4.23;;;2.97;;
10216;SDS011;5152;59.674;16.838;2023-03-08T00:58:42;6.67;;;2.47;;
10216;SDS011;5152;59.674;16.838;2023-03-08T01:01:12;3.30;;;2.30;;
10216;SDS011;5152;59.674;16.838;2023-03-08T01:03:40;3.63;;;2.30;;
10216;SDS011;5152;59.674;16.838;2023-03-08T01:06:08;3.93;;;2.70;;
10216;SDS011;5152;59.674;16.838;2023-03-08T01:08:36;4.27;;;2.50;;
10216;SDS011;5152;59.674;16.838;2023-03-08T01:11:06;4.73;;;3.40;;
10216;SDS011;5152;59.674;16.838;2023-03-08T01:13:33;4.40;;;3.10;;
10216;SDS011;5152;59.674;16.838;2023-03-08T01:16:01;5.00;;;3.23;;
10216;SDS011;5152;59.674;16.838;2023-03-08T01:18:30;5.07;;;3.03;;
10216;SDS011;5152;59.674;16.838;2023-03-08T01:20:58;6.27;;;2.90;;
10216;SDS011;5152;59.674;16.838;2023-03-08T01:23:25;4.93;;;2.87;;
10216;SDS011;5152;59.674;16.838;2023-03-08T01:25:58;3.10;;;2.27;;
10216;SDS011;5152;59.674;16.838;2023-03-08T01:28:25;4.93;;;3.60;;
10216;SDS011;5152;59.674;16.838;2023-03-08T01:30:53;4.13;;;2.83;;
10216;SDS011;5152;59.674;16.838;2023-03-08T01:33:20;5.83;;;3.70;;
10216;SDS011;5152;59.674;16.838;2023-03-08T01:35:48;4.70;;;3.23;;
10216;SDS011;5152;59.674;16.838;2023-03-08T01:38:15;8.83;;;4.27;;
10216;SDS011;5152;59.674;16.838;2023-03-08T01:40:42;4.80;;;3.10;;
10216;SDS011;5152;59.674;16.838;2023-03-08T01:48:52;6.77;;;2.90;;
10216;SDS011;5152;59.674;16.838;2023-03-08T01:51:24;4.70;;;3.17;;
10216;SDS011;5152;59.674;16.838;2023-03-08T01:53:55;9.27;;;3.83;;
10216;SDS011;5152;59.674;16.838;2023-03-08T01:56:23;3.90;;;2.67;;
10216;SDS011;5152;59.674;16.838;2023-03-08T01:58:51;3.80;;;3.10;;
10216;SDS011;5152;59.674;16.838;2023-03-08T02:01:19;3.83;;;2.70;;
10216;SDS011;5152;59.674;16.838;2023-03-08T02:03:46;7.20;;;3.87;;
10216;SDS011;5152;59.674;16.838;2023-03-08T02:06:14;5.80;;;3.70;;
10216;SDS011;5152;59.674;16.838;2023-03-08T02:08:43;6.53;;;3.53;;
10216;SDS011;5152;59.674;16.838;2023-03-08T02:11:10;5.03;;;2.80;;
10216;SDS011;5152;59.674;16.838;2023-03-08T02:13:39;6.50;;;3.47;;
10216;SDS011;5152;59.674;16.838;2023-03-08T02:16:07;3.30;;;2.63;;
10216;SDS011;5152;59.674;16.838;2023-03-08T02:18:35;4.73;;;3.20;;
10216;SDS011;5152;59.674;16.838;2023-03-08T02:21:02;4.17;;;2.43;;
10216;SDS011;5152;59.674;16.838;2023-03-08T02:23:30;8.57;;;4.80;;
10216;SDS011;5152;59.674;16.838;2023-03-08T02:25:58;4.50;;;3.63;;
10216;SDS011;5152;59.674;16.838;2023-03-08T02:28:27;9.23;;;3.37;;
10216;SDS011;5152;59.674;16.838;2023-03-08T02:30:54;6.10;;;3.43;;
10216;SDS011;5152;59.674;16.838;2023-03-08T02:33:23;6.60;;;3.73;;
10216;SDS011;5152;59.674;16.838;2023-03-08T02:35:50;7.27;;;4.00;;
10216;SDS011;5152;59.674;16.838;2023-03-08T02:38:19;4.97;;;3.50;;
10216;SDS011;5152;59.674;16.838;2023-03-08T02:40:48;5.10;;;3.50;;
10216;SDS011;5152;59.674;16.838;2023-03-08T02:43:15;4.20;;;2.30;;
10216;SDS011;5152;59.674;16.838;2023-03-08T02:45:42;4.40;;;3.03;;
10216;SDS011;5152;59.674;16.838;2023-03-08T02:48:09;6.23;;;3.93;;
10216;SDS011;5152;59.674;16.838;2023-03-08T02:50:36;3.20;;;2.60;;
10216;SDS011;5152;59.674;16.838;2023-03-08T02:53:04;4.97;;;2.77;;
10216;SDS011;5152;59.674;16.838;2023-03-08T02:55:31;2.67;;;1.93;;
10216;SDS011;5152;59.674;16.838;2023-03-08T02:58:01;4.80;;;2.87;;
10216;SDS011;5152;59.674;16.838;2023-03-08T03:00:28;5.57;;;3.13;;
10216;SDS011;5152;59.674;16.838;2023-03-08T03:02:55;3.53;;;2.43;;
10216;SDS011;5152;59.674;16.838;2023-03-08T03:05:22;3.87;;;2.47;;
10216;SDS011;5152;59.674;16.838;2023-03-08T03:07:49;6.27;;;3.53;;
10216;SDS011;5152;59.674;16.838;2023-03-08T03:10:16;2.40;;;1.90;;
10216;SDS011;5152;59.674;16.838;2023-03-08T03:12:43;3.60;;;2.57;;
10216;SDS011;5152;59.674;16.838;2023-03-08T03:15:12;2.33;;;1.73;;
10216;SDS011;5152;59.674;16.838;2023-03-08T03:17:39;3.87;;;2.23;;
10216;SDS011;5152;59.674;16.838;2023-03-08T03:20:07;9.20;;;4.03;;
10216;SDS011;5152;59.674;16.838;2023-03-08T03:22:35;4.70;;;3.00;;
10216;SDS011;5152;59.674;16.838;2023-03-08T03:25:02;4.20;;;2.73;;
10216;SDS011;5152;59.674;16.838;2023-03-08T03:27:30;4.07;;;2.53;;
10216;SDS011;5152;59.674;16.838;2023-03-08T03:29:57;4.57;;;3.33;;
10216;SDS011;5152;59.674;16.838;2023-03-08T03:32:25;4.87;;;3.40;;
10216;SDS011;5152;59.674;16.838;2023-03-08T03:34:52;3.57;;;2.53;;
10216;SDS011;5152;59.674;16.838;2023-03-08T03:37:19;4.90;;;2.80;;
10216;SDS011;5152;59.674;16.838;2023-03-08T03:39:46;7.07;;;3.37;;
10216;SDS011;5152;59.674;16.838;2023-03-08T03:42:13;3.80;;;2.97;;
10216;SDS011;5152;59.674;16.838;2023-03-08T03:44:40;3.37;;;2.20;;
10216;SDS011;5152;59.674;16.838;2023-03-08T03:47:07;3.20;;;1.90;;
10216;SDS011;5152;59.674;16.838;2023-03-08T03:49:36;2.70;;;2.07;;
10216;SDS011;5152;59.674;16.838;2023-03-08T03:52:03;7.93;;;2.53;;
10216;SDS011;5152;59.674;16.838;2023-03-08T03:54:30;5.17;;;3.07;;
10216;SDS011;5152;59.674;16.838;2023-03-08T03:56:57;5.10;;;2.80;;
10216;SDS011;5152;59.674;16.838;2023-03-08T03:59:24;5.73;;;2.23;;
10216;SDS011;5152;59.674;16.838;2023-03-08T04:01:51;3.13;;;2.13;;
10216;SDS011;5152;59.674;16.838;2023-03-08T04:04:18;3.80;;;2.23;;
10216;SDS011;5152;59.674;16.838;2023-03-08T04:06:46;6.60;;;2.23;;
10216;SDS011;5152;59.674;16.838;2023-03-08T04:09:14;3.07;;;2.20;;
10216;SDS011;5152;59.674;16.838;2023-03-08T04:11:42;5.10;;;2.40;;
10216;SDS011;5152;59.674;16.838;2023-03-08T04:14:09;5.07;;;2.00;;
10216;SDS011;5152;59.674;16.838;2023-03-08T04:16:36;5.17;;;2.60;;
10216;SDS011;5152;59.674;16.838;2023-03-08T04:19:05;3.80;;;2.30;;
10216;SDS011;5152;59.674;16.838;2023-03-08T04:21:33;2.20;;;1.93;;
10216;SDS011;5152;59.674;16.838;2023-03-08T04:24:01;2.77;;;2.00;;
10216;SDS011;5152;59.674;16.838;2023-03-08T04:26:29;7.50;;;1.90;;
10216;SDS011;5152;59.674;16.838;2023-03-08T04:28:56;1.80;;;1.37;;
10216;SDS011;5152;59.674;16.838;2023-03-08T04:31:24;3.07;;;2.20;;
10216;SDS011;5152;59.674;16.838;2023-03-08T04:33:52;2.70;;;1.83;;
10216;SDS011;5152;59.674;16.838;2023-03-08T04:36:20;3.47;;;2.40;;
10216;SDS011;5152;59.674;16.838;2023-03-08T04:38:48;4.47;;;2.30;;
10216;SDS011;5152;59.674;16.838;2023-03-08T04:41:16;4.13;;;2.43;;
10216;SDS011;5152;59.674;16.838;2023-03-08T04:43:44;3.57;;;2.33;;
10216;SDS011;5152;59.674;16.838;2023-03-08T04:46:12;5.03;;;2.60;;
10216;SDS011;5152;59.674;16.838;2023-03-08T04:48:40;3.77;;;2.37;;
10216;SDS011;5152;59.674;16.838;2023-03-08T04:51:07;4.73;;;2.50;;
10216;SDS011;5152;59.674;16.838;2023-03-08T04:53:36;4.63;;;2.47;;
10216;SDS011;5152;59.674;16.838;2023-03-08T04:56:03;7.00;;;3.27;;
10216;SDS011;5152;59.674;16.838;2023-03-08T04:58:33;4.00;;;2.20;;
10216;SDS011;5152;59.674;16.838;2023-03-08T05:01:06;4.50;;;2.50;;
10216;SDS011;5152;59.674;16.838;2023-03-08T05:03:34;5.93;;;2.87;;
10216;SDS011;5152;59.674;16.838;2023-03-08T05:06:01;5.53;;;2.33;;
10216;SDS011;5152;59.674;16.838;2023-03-08T05:08:28;5.07;;;2.80;;
10216;SDS011;5152;59.674;16.838;2023-03-08T05:10:55;5.47;;;2.57;;
10216;SDS011;5152;59.674;16.838;2023-03-08T05:13:23;4.50;;;2.90;;
10216;SDS011;5152;59.674;16.838;2023-03-08T05:15:52;3.33;;;2.27;;
10216;SDS011;5152;59.674;16.838;2023-03-08T05:18:19;3.20;;;2.37;;
10216;SDS011;5152;59.674;16.838;2023-03-08T05:20:51;4.03;;;2.20;;
10216;SDS011;5152;59.674;16.838;2023-03-08T05:23:19;3.90;;;2.40;;
10216;SDS011;5152;59.674;16.838;2023-03-08T05:25:49;4.13;;;2.00;;
10216;SDS011;5152;59.674;16.838;2023-03-08T05:28:17;5.10;;;2.07;;
10216;SDS011;5152;59.674;16.838;2023-03-08T05:30:44;3.80;;;2.83;;
10216;SDS011;5152;59.674;16.838;2023-03-08T05:33:12;5.37;;;2.63;;
10216;SDS011;5152;59.674;16.838;2023-03-08T05:35:39;3.67;;;2.50;;
10216;SDS011;5152;59.674;16.838;2023-03-08T05:38:06;5.87;;;2.90;;
10216;SDS011;5152;59.674;16.838;2023-03-08T05:40:33;3.63;;;2.60;;
10216;SDS011;5152;59.674;16.838;2023-03-08T05:43:00;6.20;;;2.70;;
10216;SDS011;5152;59.674;16.838;2023-03-08T05:45:27;7.73;;;3.20;;
10216;SDS011;5152;59.674;16.838;2023-03-08T05:47:54;6.83;;;3.20;;
10216;SDS011;5152;59.674;16.838;2023-03-08T05:50:22;8.63;;;2.70;;
10216;SDS011;5152;59.674;16.838;2023-03-08T05:52:49;4.77;;;2.90;;
10216;SDS011;5152;59.674;16.838;2023-03-08T05:55:16;8.37;;;2.93;;
10216;SDS011;5152;59.674;16.838;2023-03-08T05:57:43;7.30;;;3.17;;
10216;SDS011;5152;59.674;16.838;2023-03-08T06:00:12;5.40;;;2.83;;
10216;SDS011;5152;59.674;16.838;2023-03-08T06:02:40;8.30;;;3.37;;
10216;SDS011;5152;59.674;16.838;2023-03-08T06:05:07;6.97;;;3.50;;
10216;SDS011;5152;59.674;16.838;2023-03-08T06:07:36;5.70;;;3.20;;
10216;SDS011;5152;59.674;16.838;2023-03-08T06:10:03;5.33;;;2.87;;
10216;SDS011;5152;59.674;16.838;2023-03-08T06:12:31;4.17;;;2.80;;
10216;SDS011;5152;59.674;16.838;2023-03-08T06:14:58;6.30;;;3.30;;
10216;SDS011;5152;59.674;16.838;2023-03-08T06:17:25;8.30;;;4.40;;
10216;SDS011;5152;59.674;16.838;2023-03-08T06:19:52;6.73;;;3.77;;
10216;SDS011;5152;59.674;16.838;2023-03-08T06:22:19;8.30;;;4.13;;
10216;SDS011;5152;59.674;16.838;2023-03-08T06:24:48;6.90;;;3.53;;
10216;SDS011;5152;59.674;16.838;2023-03-08T06:27:15;5.10;;;3.27;;
10216;SDS011;5152;59.674;16.838;2023-03-08T06:29:42;4.67;;;3.17;;
10216;SDS011;5152;59.674;16.838;2023-03-08T06:32:09;4.97;;;2.57;;
10216;SDS011;5152;59.674;16.838;2023-03-08T06:34:36;7.17;;;3.17;;
10216;SDS011;5152;59.674;16.838;2023-03-08T06:37:03;6.37;;;3.53;;
10216;SDS011;5152;59.674;16.838;2023-03-08T06:39:30;3.83;;;2.73;;
10216;SDS011;5152;59.674;16.838;2023-03-08T06:41:59;4.37;;;2.90;;
10216;SDS011;5152;59.674;16.838;2023-03-08T06:44:26;5.93;;;3.00;;
10216;SDS011;5152;59.674;16.838;2023-03-08T06:46:54;3.77;;;2.17;;
10216;SDS011;5152;59.674;16.838;2023-03-08T06:49:21;3.70;;;2.20;;
10216;SDS011;5152;59.674;16.838;2023-03-08T06:51:48;6.10;;;2.90;;
10216;SDS011;5152;59.674;16.838;2023-03-08T06:54:15;3.73;;;2.70;;
10216;SDS011;5152;59.674;16.838;2023-03-08T06:56:42;4.10;;;2.87;;
10216;SDS011;5152;59.674;16.838;2023-03-08T06:59:11;4.30;;;3.30;;
10216;SDS011;5152;59.674;16.838;2023-03-08T07:01:39;3.67;;;2.63;;
10216;SDS011;5152;59.674;16.838;2023-03-08T07:04:06;3.43;;;2.53;;
10216;SDS011;5152;59.674;16.838;2023-03-08T07:06:33;4.10;;;2.23;;
10216;SDS011;5152;59.674;16.838;2023-03-08T07:09:00;4.83;;;2.93;;
10216;SDS011;5152;59.674;16.838;2023-03-08T07:11:27;5.10;;;2.97;;
10216;SDS011;5152;59.674;16.838;2023-03-08T07:13:56;8.07;;;4.43;;
10216;SDS011;5152;59.674;16.838;2023-03-08T07:16:24;6.93;;;3.13;;
10216;SDS011;5152;59.674;16.838;2023-03-08T07:18:52;11.63;;;4.73;;
10216;SDS011;5152;59.674;16.838;2023-03-08T07:21:19;11.70;;;5.27;;
10216;SDS011;5152;59.674;16.838;2023-03-08T07:23:45;4.77;;;3.40;;
10216;SDS011;5152;59.674;16.838;2023-03-08T07:26:12;5.43;;;3.27;;
10216;SDS011;5152;59.674;16.838;2023-03-08T07:28:39;5.50;;;3.50;;
10216;SDS011;5152;59.674;16.838;2023-03-08T07:31:08;6.80;;;3.63;;
10216;SDS011;5152;59.674;16.838;2023-03-08T07:33:37;8.40;;;3.30;;
10216;SDS011;5152;59.674;16.838;2023-03-08T07:36:04;5.20;;;3.47;;
10216;SDS011;5152;59.674;16.838;2023-03-08T07:38:31;3.87;;;2.40;;
10216;SDS011;5152;59.674;16.838;2023-03-08T07:40:58;3.37;;;2.90;;
10216;SDS011;5152;59.674;16.838;2023-03-08T07:43:25;4.17;;;3.00;;
10216;SDS011;5152;59.674;16.838;2023-03-08T07:45:52;5.27;;;2.20;;
10216;SDS011;5152;59.674;16.838;2023-03-08T07:48:19;4.07;;;2.23;;
10216;SDS011;5152;59.674;16.838;2023-03-08T07:50:47;3.73;;;2.03;;
10216;SDS011;5152;59.674;16.838;2023-03-08T07:53:14;2.60;;;1.67;;
10216;SDS011;5152;59.674;16.838;2023-03-08T07:55:41;3.43;;;2.30;;
10216;SDS011;5152;59.674;16.838;2023-03-08T07:58:08;2.40;;;2.10;;
10216;SDS011;5152;59.674;16.838;2023-03-08T08:00:35;2.03;;;1.83;;
10216;SDS011;5152;59.674;16.838;2023-03-08T08:03:02;3.00;;;2.30;;
10216;SDS011;5152;59.674;16.838;2023-03-08T08:05:29;3.63;;;2.47;;
10216;SDS011;5152;59.674;16.838;2023-03-08T08:07:57;3.20;;;2.07;;
10216;SDS011;5152;59.674;16.838;2023-03-08T08:10:26;5.50;;;3.20;;
10216;SDS011;5152;59.674;16.838;2023-03-08T08:12:53;7.13;;;2.87;;
10216;SDS011;5152;59.674;16.838;2023-03-08T08:15:19;2.77;;;2.47;;
10216;SDS011;5152;59.674;16.838;2023-03-08T08:17:49;3.77;;;2.67;;
10216;SDS011;5152;59.674;16.838;2023-03-08T08:20:16;3.87;;;2.60;;
10216;SDS011;5152;59.674;16.838;2023-03-08T08:22:43;3.80;;;2.80;;
10216;SDS011;5152;59.674;16.838;2023-03-08T08:25:11;2.77;;;2.27;;
10216;SDS011;5152;59.674;16.838;2023-03-08T08:27:38;5.50;;;2.53;;
10216;SDS011;5152;59.674;16.838;2023-03-08T08:30:06;3.53;;;2.10;;
10216;SDS011;5152;59.674;16.838;2023-03-08T08:32:33;3.27;;;2.20;;
10216;SDS011;5152;59.674;16.838;2023-03-08T08:35:00;4.40;;;2.00;;
10216;SDS011;5152;59.674;16.838;2023-03-08T08:37:28;3.10;;;2.50;;
10216;SDS011;5152;59.674;16.838;2023-03-08T08:39:55;3.73;;;2.97;;
10216;SDS011;5152;59.674;16.838;2023-03-08T08:42:24;3.07;;;2.30;;
10216;SDS011;5152;59.674;16.838;2023-03-08T08:44:51;3.07;;;2.27;;
10216;SDS011;5152;59.674;16.838;2023-03-08T08:47:18;1.80;;;1.40;;
10216;SDS011;5152;59.674;16.838;2023-03-08T08:49:45;3.57;;;2.60;;
10216;SDS011;5152;59.674;16.838;2023-03-08T08:52:12;4.80;;;2.17;;
10216;SDS011;5152;59.674;16.838;2023-03-08T08:54:39;2.30;;;1.67;;
10216;SDS011;5152;59.674;16.838;2023-03-08T08:57:06;1.90;;;1.43;;
10216;SDS011;5152;59.674;16.838;2023-03-08T08:59:34;3.17;;;2.50;;
10216;SDS011;5152;59.674;16.838;2023-03-08T09:02:01;2.20;;;1.90;;
10216;SDS011;5152;59.674;16.838;2023-03-08T09:04:28;5.03;;;2.63;;
10216;SDS011;5152;59.674;16.838;2023-03-08T09:06:55;3.80;;;1.93;;
10216;SDS011;5152;59.674;16.838;2023-03-08T09:09:22;5.43;;;2.13;;
10216;SDS011;5152;59.674;16.838;2023-03-08T09:11:50;5.80;;;2.17;;
10216;SDS011;5152;59.674;16.838;2023-03-08T09:14:17;3.30;;;2.47;;
10216;SDS011;5152;59.674;16.838;2023-03-08T09:16:46;11.00;;;4.93;;
10216;SDS011;5152;59.674;16.838;2023-03-08T09:19:13;14.53;;;9.10;;
10216;SDS011;5152;59.674;16.838;2023-03-08T09:21:39;9.73;;;5.73;;
10216;SDS011;5152;59.674;16.838;2023-03-08T09:24:06;13.43;;;7.50;;
10216;SDS011;5152;59.674;16.838;2023-03-08T09:26:34;14.80;;;7.77;;
10216;SDS011;5152;59.674;16.838;2023-03-08T09:29:02;11.23;;;4.93;;
10216;SDS011;5152;59.674;16.838;2023-03-08T09:31:32;12.10;;;6.50;;
10216;SDS011;5152;59.674;16.838;2023-03-08T09:34:02;7.13;;;2.90;;
10216;SDS011;5152;59.674;16.838;2023-03-08T09:36:32;3.43;;;2.73;;
10216;SDS011;5152;59.674;16.838;2023-03-08T09:39:00;8.90;;;4.90;;
10216;SDS011;5152;59.674;16.838;2023-03-08T09:41:37;4.33;;;2.57;;
10216;SDS011;5152;59.674;16.838;2023-03-08T09:47:35;6.60;;;4.33;;
10216;SDS011;5152;59.674;16.838;2023-03-08T09:50:13;5.83;;;3.73;;
10216;SDS011;5152;59.674;16.838;2023-03-08T09:52:47;6.30;;;4.43;;
10216;SDS011;5152;59.674;16.838;2023-03-08T09:55:16;8.33;;;5.53;;
10216;SDS011;5152;59.674;16.838;2023-03-08T09:57:50;7.33;;;4.33;;
10216;SDS011;5152;59.674;16.838;2023-03-08T10:00:20;6.63;;;4.03;;
10216;SDS011;5152;59.674;16.838;2023-03-08T10:02:52;7.67;;;3.83;;
10216;SDS011;5152;59.674;16.838;2023-03-08T10:05:41;3.43;;;1.97;;
10216;SDS011;5152;59.674;16.838;2023-03-08T10:08:12;3.00;;;2.30;;
10216;SDS011;5152;59.674;16.838;2023-03-08T10:10:44;2.83;;;2.53;;
10216;SDS011;5152;59.674;16.838;2023-03-08T10:13:20;2.33;;;1.93;;
10216;SDS011;5152;59.674;16.838;2023-03-08T10:16:01;1.53;;;1.40;;
10216;SDS011;5152;59.674;16.838;2023-03-08T10:18:33;5.43;;;2.23;;
10216;SDS011;5152;59.674;16.838;2023-03-08T10:21:04;3.47;;;2.90;;
10216;SDS011;5152;59.674;16.838;2023-03-08T10:23:33;2.30;;;1.73;;
10216;SDS011;5152;59.674;16.838;2023-03-08T10:26:00;4.17;;;2.60;;
10216;SDS011;5152;59.674;16.838;2023-03-08T10:28:31;6.47;;;3.03;;
10216;SDS011;5152;59.674;16.838;2023-03-08T10:30:59;2.37;;;2.10;;
10216;SDS011;5152;59.674;16.838;2023-03-08T10:33:30;5.10;;;2.17;;
10216;SDS011;5152;59.674;16.838;2023-03-08T10:35:59;3.80;;;2.23;;
10216;SDS011;5152;59.674;16.838;2023-03-08T10:38:31;2.77;;;1.87;;
10216;SDS011;5152;59.674;16.838;2023-03-08T10:41:03;1.77;;;1.57;;
10216;SDS011;5152;59.674;16.838;2023-03-08T10:43:32;2.10;;;1.40;;
10216;SDS011;5152;59.674;16.838;2023-03-08T10:46:01;2.43;;;1.50;;
10216;SDS011;5152;59.674;16.838;2023-03-08T10:48:29;1.93;;;1.80;;
10216;SDS011;5152;59.674;16.838;2023-03-08T10:50:57;3.90;;;2.10;;
10216;SDS011;5152;59.674;16.838;2023-03-08T10:53:25;1.83;;;1.40;;
10216;SDS011;5152;59.674;16.838;2023-03-08T10:55:55;2.20;;;1.63;;
10216;SDS011;5152;59.674;16.838;2023-03-08T10:58:25;1.63;;;1.53;;
10216;SDS011;5152;59.674;16.838;2023-03-08T11:00:55;1.93;;;1.40;;
10216;SDS011;5152;59.674;16.838;2023-03-08T11:03:24;2.87;;;1.60;;
10216;SDS011;5152;59.674;16.838;2023-03-08T11:05:52;2.13;;;1.63;;
10216;SDS011;5152;59.674;16.838;2023-03-08T11:08:22;1.97;;;1.43;;
10216;SDS011;5152;59.674;16.838;2023-03-08T11:11:02;1.20;;;1.00;;
10216;SDS011;5152;59.674;16.838;2023-03-08T11:13:33;2.73;;;1.50;;
10216;SDS011;5152;59.674;16.838;2023-03-08T11:16:07;3.43;;;1.10;;
10216;SDS011;5152;59.674;16.838;2023-03-08T11:18:54;1.63;;;1.43;;
10216;SDS011;5152;59.674;16.838;2023-03-08T11:21:30;1.93;;;1.40;;
10216;SDS011;5152;59.674;16.838;2023-03-08T11:24:04;2.03;;;1.40;;
10216;SDS011;5152;59.674;16.838;2023-03-08T11:26:43;2.73;;;1.37;;
10216;SDS011;5152;59.674;16.838;2023-03-08T11:29:20;3.23;;;1.20;;
10216;SDS011;5152;59.674;16.838;2023-03-08T11:31:53;2.40;;;1.40;;
10216;SDS011;5152;59.674;16.838;2023-03-08T11:37:23;2.40;;;1.50;;
10216;SDS011;5152;59.674;16.838;2023-03-08T11:39:57;2.03;;;0.97;;
10216;SDS011;5152;59.674;16.838;2023-03-08T11:42:34;5.43;;;1.37;;
10216;SDS011;5152;59.674;16.838;2023-03-08T11:45:15;2.57;;;1.33;;
10216;SDS011;5152;59.674;16.838;2023-03-08T11:47:51;1.63;;;1.50;;
10216;SDS011;5152;59.674;16.838;2023-03-08T11:50:38;8.20;;;1.43;;
10216;SDS011;5152;59.674;16.838;2023-03-08T11:53:15;1.70;;;1.27;;
10216;SDS011;5152;59.674;16.838;2023-03-08T11:55:47;2.77;;;1.40;;
10216;SDS011;5152;59.674;16.838;2023-03-08T11:58:25;2.90;;;1.73;;
10216;SDS011;5152;59.674;16.838;2023-03-08T12:00:55;4.90;;;1.70;;
10216;SDS011;5152;59.674;16.838;2023-03-08T12:03:27;5.63;;;2.17;;
10216;SDS011;5152;59.674;16.838;2023-03-08T12:05:56;2.67;;;1.70;;
10216;SDS011;5152;59.674;16.838;2023-03-08T12:08:26;7.90;;;1.87;;
10216;SDS011;5152;59.674;16.838;2023-03-08T12:10:55;4.77;;;2.07;;
10216;SDS011;5152;59.674;16.838;2023-03-08T12:13:32;5.33;;;2.40;;
10216;SDS011;5152;59.674;16.838;2023-03-08T12:16:01;3.73;;;1.63;;
10216;SDS011;5152;59.674;16.838;2023-03-08T12:18:35;5.23;;;1.40;;
10216;SDS011;5152;59.674;16.838;2023-03-08T12:21:07;2.03;;;1.53;;
10216;SDS011;5152;59.674;16.838;2023-03-08T12:23:42;4.93;;;1.10;;
10216;SDS011;5152;59.674;16.838;2023-03-08T12:26:15;5.20;;;2.43;;
10216;SDS011;5152;59.674;16.838;2023-03-08T12:28:45;1.10;;;1.10;;
10216;SDS011;5152;59.674;16.838;2023-03-08T12:31:18;2.00;;;1.67;;
10216;SDS011;5152;59.674;16.838;2023-03-08T12:33:49;2.90;;;2.20;;
10216;SDS011;5152;59.674;16.838;2023-03-08T12:36:16;5.77;;;2.30;;
10216;SDS011;5152;59.674;16.838;2023-03-08T12:38:46;3.53;;;1.83;;
10216;SDS011;5152;59.674;16.838;2023-03-08T12:41:20;2.00;;;1.50;;
10216;SDS011;5152;59.674;16.838;2023-03-08T12:44:02;3.73;;;2.23;;
10216;SDS011;5152;59.674;16.838;2023-03-08T12:46:46;2.10;;;1.90;;
10216;SDS011;5152;59.674;16.838;2023-03-08T12:49:18;3.63;;;2.10;;
10216;SDS011;5152;59.674;16.838;2023-03-08T12:51:54;5.07;;;1.87;;
10216;SDS011;5152;59.674;16.838;2023-03-08T12:54:22;2.50;;;1.07;;
10216;SDS011;5152;59.674;16.838;2023-03-08T12:56:50;3.80;;;1.80;;
10216;SDS011;5152;59.674;16.838;2023-03-08T12:59:26;4.03;;;2.20;;
10216;SDS011;5152;59.674;16.838;2023-03-08T13:02:01;1.80;;;1.57;;
10216;SDS011;5152;59.674;16.838;2023-03-08T13:04:40;4.67;;;2.33;;
10216;SDS011;5152;59.674;16.838;2023-03-08T13:07:24;3.03;;;2.17;;
10216;SDS011;5152;59.674;16.838;2023-03-08T13:09:54;1.83;;;1.40;;
10216;SDS011;5152;59.674;16.838;2023-03-08T13:15:21;2.40;;;2.20;;
10216;SDS011;5152;59.674;16.838;2023-03-08T13:17:51;3.03;;;1.70;;
10216;SDS011;5152;59.674;16.838;2023-03-08T13:20:24;2.37;;;1.00;;
10216;SDS011;5152;59.674;16.838;2023-03-08T13:23:00;1.13;;;1.03;;
10216;SDS011;5152;59.674;16.838;2023-03-08T13:25:43;1.60;;;1.00;;
10216;SDS011;5152;59.674;16.838;2023-03-08T13:28:17;3.33;;;1.40;;
10216;SDS011;5152;59.674;16.838;2023-03-08T13:30:48;1.83;;;1.53;;
10216;SDS011;5152;59.674;16.838;2023-03-08T13:33:17;2.40;;;1.57;;
10216;SDS011;5152;59.674;16.838;2023-03-08T13:35:53;0.80;;;0.80;;
10216;SDS011;5152;59.674;16.838;2023-03-08T13:38:23;2.70;;;1.90;;
10216;SDS011;5152;59.674;16.838;2023-03-08T13:40:52;2.57;;;1.90;;
10216;SDS011;5152;59.674;16.838;2023-03-08T13:43:20;1.20;;;1.10;;
10216;SDS011;5152;59.674;16.838;2023-03-08T13:45:50;1.67;;;0.90;;
10216;SDS011;5152;59.674;16.838;2023-03-08T13:48:18;1.70;;;1.37;;
10216;SDS011;5152;59.674;16.838;2023-03-08T13:50:46;1.33;;;1.23;;
10216;SDS011;5152;59.674;16.838;2023-03-08T13:53:16;4.77;;;1.77;;
10216;SDS011;5152;59.674;16.838;2023-03-08T13:55:44;1.50;;;1.20;;
10216;SDS011;5152;59.674;16.838;2023-03-08T13:58:14;1.40;;;1.03;;
10216;SDS011;5152;59.674;16.838;2023-03-08T14:00:57;1.50;;;1.30;;
10216;SDS011;5152;59.674;16.838;2023-03-08T14:03:28;1.40;;;0.77;;
10216;SDS011;5152;59.674;16.838;2023-03-08T14:05:56;2.33;;;1.23;;
10216;SDS011;5152;59.674;16.838;2023-03-08T14:08:23;1.10;;;1.00;;
10216;SDS011;5152;59.674;16.838;2023-03-08T14:10:52;1.70;;;0.70;;
10216;SDS011;5152;59.674;16.838;2023-03-08T14:13:23;2.13;;;0.70;;
10216;SDS011;5152;59.674;16.838;2023-03-08T14:15:53;4.13;;;1.20;;
10216;SDS011;5152;59.674;16.838;2023-03-08T14:18:23;0.97;;;0.87;;
10216;SDS011;5152;59.674;16.838;2023-03-08T14:20:59;1.43;;;1.33;;
10216;SDS011;5152;59.674;16.838;2023-03-08T14:23:44;2.53;;;1.33;;
10216;SDS011;5152;59.674;16.838;2023-03-08T14:26:22;1.20;;;1.10;;
10216;SDS011;5152;59.674;16.838;2023-03-08T14:29:11;2.20;;;1.50;;
10216;SDS011;5152;59.674;16.838;2023-03-08T14:31:50;1.80;;;1.20;;
10216;SDS011;5152;59.674;16.838;2023-03-08T14:34:24;1.30;;;1.20;;
10216;SDS011;5152;59.674;16.838;2023-03-08T14:36:53;1.77;;;1.33;;
10216;SDS011;5152;59.674;16.838;2023-03-08T14:39:22;1.03;;;0.87;;
10216;SDS011;5152;59.674;16.838;2023-03-08T14:41:50;1.57;;;1.17;;
10216;SDS011;5152;59.674;16.838;2023-03-08T14:44:18;3.97;;;1.57;;
10216;SDS011;5152;59.674;16.838;2023-03-08T14:46:46;1.60;;;1.47;;
10216;SDS011;5152;59.674;16.838;2023-03-08T14:49:24;0.60;;;0.60;;
10216;SDS011;5152;59.674;16.838;2023-03-08T14:51:52;2.00;;;1.13;;
10216;SDS011;5152;59.674;16.838;2023-03-08T14:54:20;1.50;;;1.40;;
10216;SDS011;5152;59.674;16.838;2023-03-08T14:56:54;1.80;;;1.33;;
10216;SDS011;5152;59.674;16.838;2023-03-08T14:59:21;1.90;;;0.80;;
10216;SDS011;5152;59.674;16.838;2023-03-08T15:01:48;1.20;;;0.97;;
10216;SDS011;5152;59.674;16.838;2023-03-08T15:04:16;1.17;;;1.07;;
10216;SDS011;5152;59.674;16.838;2023-03-08T15:06:45;1.73;;;1.30;;
10216;SDS011;5152;59.674;16.838;2023-03-08T15:09:14;1.70;;;1.10;;
10216;SDS011;5152;59.674;16.838;2023-03-08T15:11:42;1.07;;;0.83;;
10216;SDS011;5152;59.674;16.838;2023-03-08T15:14:10;2.77;;;1.03;;
10216;SDS011;5152;59.674;16.838;2023-03-08T15:16:37;2.23;;;1.00;;